createdAt,value
2022-12-24T00:01:37.321Z,103.60
2022-12-24T00:04:05.990Z,109.30
2022-12-24T00:06:34.187Z,99.50
2022-12-24T00:09:03.044Z,99.60
2022-12-24T00:11:31.375Z,101.70
2022-12-24T00:13:59.656Z,112.60
2022-12-24T00:16:28.458Z,116.20
2022-12-24T00:18:56.661Z,98.30
2022-12-24T00:21:24.864Z,110.80
2022-12-24T00:23:53.030Z,110.60
2022-12-24T00:26:21.233Z,103.60
2022-12-24T00:28:49.361Z,109.10
2022-12-24T00:31:19.192Z,107.00
2022-12-24T00:33:48.389Z,108.00
2022-12-24T00:36:17.383Z,107.00
2022-12-24T00:38:45.994Z,131.80
2022-12-24T00:41:29.405Z,119.00
2022-12-24T00:44:05.917Z,116.50
2022-12-24T00:46:35.154Z,118.30
2022-12-24T00:49:04.875Z,118.30
2022-12-24T00:51:34.299Z,116.30
2022-12-24T00:54:02.383Z,127.10
2022-12-24T00:56:30.476Z,116.10
2022-12-24T00:58:58.541Z,135.20
2022-12-24T01:01:27.593Z,126.20
2022-12-24T01:04:16.568Z,128.70
2022-12-24T01:06:44.806Z,138.10
2022-12-24T01:09:13.440Z,138.30
2022-12-24T01:11:41.991Z,139.00
2022-12-24T01:14:10.037Z,136.70
2022-12-24T01:16:38.440Z,126.20
2022-12-24T01:19:06.691Z,118.60
2022-12-24T01:21:34.907Z,123.70
2022-12-24T01:24:03.305Z,126.90
2022-12-24T01:26:31.540Z,128.60
2022-12-24T01:28:59.956Z,135.20
2022-12-24T01:31:28.135Z,122.10
2022-12-24T01:33:56.220Z,124.70
2022-12-24T01:36:24.315Z,117.10
2022-12-24T01:38:52.487Z,122.80
2022-12-24T01:41:40.964Z,131.60
2022-12-24T01:44:52.384Z,123.70
2022-12-24T01:47:30.347Z,132.70
2022-12-24T01:50:02.112Z,132.30
2022-12-24T01:52:36.180Z,135.30
2022-12-24T01:55:13.149Z,131.00
2022-12-24T01:57:53.449Z,136.80
2022-12-24T02:00:22.497Z,136.00
2022-12-24T02:02:54.272Z,128.90
2022-12-24T02:05:39.940Z,126.60
2022-12-24T02:08:08.484Z,125.50
2022-12-24T02:10:36.841Z,118.00
2022-12-24T02:13:06.359Z,114.90
2022-12-24T02:15:56.456Z,125.40
2022-12-24T02:18:43.305Z,116.80
2022-12-24T02:21:40.732Z,114.60
2022-12-24T02:24:11.610Z,113.70
2022-12-24T02:26:45.449Z,119.60
2022-12-24T02:29:47.626Z,120.10
2022-12-24T02:32:24.656Z,123.90
2022-12-24T02:35:11.055Z,123.80
2022-12-24T02:37:53.254Z,131.00
2022-12-24T02:40:30.364Z,120.10
2022-12-24T02:43:03.768Z,127.40
2022-12-24T02:45:34.860Z,132.40
2022-12-24T02:48:03.437Z,130.40
2022-12-24T02:50:31.624Z,133.80
2022-12-24T02:52:59.691Z,133.60
2022-12-24T02:55:48.488Z,140.50
2022-12-24T02:58:19.484Z,138.30
2022-12-24T03:01:18.087Z,140.30
2022-12-24T03:04:04.669Z,128.70
2022-12-24T03:06:38.726Z,131.40
2022-12-24T03:09:14.973Z,121.20
2022-12-24T03:11:50.808Z,122.30
2022-12-24T03:14:20.205Z,126.20
2022-12-24T03:16:49.742Z,124.70
2022-12-24T03:19:19.008Z,98.80
2022-12-24T03:21:49.992Z,129.80
2022-12-24T03:24:18.010Z,134.30
2022-12-24T03:26:47.371Z,120.10
2022-12-24T03:29:15.482Z,129.40
2022-12-24T03:31:47.219Z,143.90
2022-12-24T03:34:16.078Z,135.50
2022-12-24T03:36:44.871Z,124.90
2022-12-24T03:39:12.969Z,122.90
2022-12-24T03:41:40.901Z,129.70
2022-12-24T03:44:08.922Z,124.20
2022-12-24T03:46:37.031Z,128.70
2022-12-24T03:49:05.426Z,132.70
2022-12-24T03:51:33.573Z,127.60
2022-12-24T03:54:01.548Z,122.20
2022-12-24T03:56:29.799Z,129.00
2022-12-24T03:58:57.976Z,125.40
2022-12-24T04:01:26.279Z,125.90
2022-12-24T04:03:54.357Z,125.80
2022-12-24T04:06:22.732Z,126.00
2022-12-24T04:08:50.887Z,116.50
2022-12-24T04:11:19.070Z,114.90
2022-12-24T04:13:47.336Z,126.90
2022-12-24T04:16:17.839Z,126.40
2022-12-24T04:18:46.015Z,121.50
2022-12-24T04:21:14.184Z,128.50
2022-12-24T04:23:42.541Z,115.00
2022-12-24T04:26:12.912Z,128.00
2022-12-24T04:28:42.752Z,133.10
2022-12-24T04:31:14.426Z,122.90
2022-12-24T04:33:42.972Z,112.30
2022-12-24T04:36:14.688Z,114.10
2022-12-24T04:38:43.638Z,103.30
2022-12-24T04:41:23.143Z,106.30
2022-12-24T04:43:54.647Z,115.60
2022-12-24T04:46:25.706Z,110.20
2022-12-24T04:48:54.672Z,108.80
2022-12-24T04:51:24.500Z,107.40
2022-12-24T04:53:52.861Z,107.80
2022-12-24T04:56:24.323Z,106.80
2022-12-24T04:58:53.194Z,103.40
2022-12-24T05:01:27.895Z,102.10
2022-12-24T05:03:56.072Z,108.80
2022-12-24T05:06:27.850Z,100.30
2022-12-24T05:08:57.589Z,94.00
2022-12-24T05:11:26.282Z,103.70
2022-12-24T05:13:54.483Z,89.10
2022-12-24T05:16:24.250Z,108.00
2022-12-24T05:18:53.195Z,86.30
2022-12-24T05:21:23.438Z,92.00
2022-12-24T05:24:11.098Z,93.10
2022-12-24T05:26:58.768Z,96.60
2022-12-24T05:29:26.853Z,93.60
2022-12-24T05:31:55.072Z,88.90
2022-12-24T05:34:23.321Z,98.00
2022-12-24T05:36:51.239Z,94.40
2022-12-24T05:39:19.270Z,82.50
2022-12-24T05:41:47.763Z,91.00
2022-12-24T05:44:16.600Z,83.90
2022-12-24T05:46:45.019Z,81.20
2022-12-24T05:49:14.639Z,88.20
2022-12-24T05:51:43.344Z,77.50
2022-12-24T05:54:11.463Z,81.30
2022-12-24T05:56:39.616Z,82.00
2022-12-24T05:59:07.744Z,77.30
2022-12-24T06:01:35.885Z,76.10
2022-12-24T06:04:04.015Z,70.20
2022-12-24T06:06:32.199Z,74.30
2022-12-24T06:09:00.286Z,73.80
2022-12-24T06:11:28.759Z,70.80
2022-12-24T06:13:57.393Z,62.20
2022-12-24T06:16:26.343Z,73.80
2022-12-24T06:18:54.608Z,69.40
2022-12-24T06:21:22.957Z,77.90
2022-12-24T06:23:51.273Z,71.40
2022-12-24T06:26:22.161Z,77.30
2022-12-24T06:28:52.286Z,81.80
2022-12-24T06:31:22.959Z,77.30
2022-12-24T06:33:52.403Z,67.10
2022-12-24T06:36:23.866Z,63.80
2022-12-24T06:38:53.493Z,80.30
2022-12-24T06:41:22.292Z,78.30
2022-12-24T06:43:52.580Z,73.60
2022-12-24T06:46:22.231Z,74.60
2022-12-24T06:48:51.102Z,72.90
2022-12-24T06:51:20.234Z,70.10
2022-12-24T06:53:52.993Z,73.40
2022-12-24T06:56:21.893Z,71.10
2022-12-24T06:58:50.487Z,67.90
2022-12-24T07:01:20.213Z,60.80
2022-12-24T07:03:48.815Z,61.20
2022-12-24T07:06:29.424Z,60.40
2022-12-24T07:08:57.600Z,55.50
2022-12-24T07:11:26.518Z,57.50
2022-12-24T07:13:54.875Z,58.70
2022-12-24T07:16:23.169Z,54.20
2022-12-24T07:18:51.423Z,65.00
2022-12-24T07:21:19.296Z,61.70
2022-12-24T07:23:47.874Z,59.70
2022-12-24T07:26:15.907Z,55.20
2022-12-24T07:28:43.854Z,61.00
2022-12-24T07:31:12.125Z,56.50
2022-12-24T07:33:40.278Z,58.90
2022-12-24T07:36:14.768Z,60.40
2022-12-24T07:38:42.893Z,66.80
2022-12-24T07:41:11.131Z,65.60
2022-12-24T07:43:39.839Z,62.40
2022-12-24T07:46:08.712Z,65.30
2022-12-24T07:48:37.187Z,60.50
2022-12-24T07:51:05.817Z,59.90
2022-12-24T07:53:34.032Z,64.60
2022-12-24T07:56:05.216Z,68.10
2022-12-24T07:58:36.999Z,56.60
2022-12-24T08:01:05.268Z,63.40
2022-12-24T08:03:33.487Z,60.10
2022-12-24T08:06:01.713Z,58.30
2022-12-24T08:08:30.032Z,54.80
2022-12-24T08:11:03.256Z,57.80
2022-12-24T08:13:31.973Z,55.30
2022-12-24T08:16:00.246Z,59.60
2022-12-24T08:18:28.980Z,61.90
2022-12-24T08:20:57.116Z,56.80
2022-12-24T08:23:25.421Z,62.10
2022-12-24T08:25:53.722Z,63.00
2022-12-24T08:28:22.092Z,60.90
2022-12-24T08:30:52.117Z,60.70
2022-12-24T08:33:20.811Z,61.90
2022-12-24T08:35:50.852Z,64.60
2022-12-24T08:38:20.029Z,65.70
2022-12-24T08:40:50.270Z,65.20
2022-12-24T08:43:19.610Z,66.30
2022-12-24T08:45:49.754Z,67.10
2022-12-24T08:48:18.373Z,69.70
2022-12-24T08:50:46.714Z,62.70
2022-12-24T08:53:15.327Z,72.70
2022-12-24T08:55:43.501Z,76.00
2022-12-24T08:58:11.755Z,65.90
2022-12-24T09:00:40.167Z,64.40
2022-12-24T09:03:08.202Z,62.90
2022-12-24T09:05:40.356Z,62.60
2022-12-24T09:08:08.530Z,65.70
2022-12-24T09:10:36.682Z,62.90
2022-12-24T09:13:05.401Z,60.00
2022-12-24T09:15:33.653Z,64.40
2022-12-24T09:18:02.347Z,68.90
2022-12-24T09:20:30.748Z,58.00
2022-12-24T09:22:59.052Z,65.30
2022-12-24T09:25:27.341Z,64.00
2022-12-24T09:27:55.604Z,68.10
2022-12-24T09:30:23.657Z,66.90
2022-12-24T09:32:52.239Z,63.40
2022-12-24T09:35:20.423Z,63.00
2022-12-24T09:37:48.543Z,68.70
2022-12-24T09:40:29.381Z,75.00
2022-12-24T09:42:57.430Z,74.00
2022-12-24T09:45:33.756Z,82.00
2022-12-24T09:48:11.964Z,77.50
2022-12-24T09:50:46.678Z,70.30
2022-12-24T09:53:40.961Z,73.50
2022-12-24T09:56:44.361Z,73.90
2022-12-24T09:59:22.836Z,70.90
2022-12-24T10:01:54.647Z,76.20
2022-12-24T10:04:30.851Z,69.30
2022-12-24T10:07:08.560Z,64.00
2022-12-24T10:10:13.683Z,78.70
2022-12-24T10:13:11.830Z,76.70
2022-12-24T10:15:46.565Z,74.10
2022-12-24T10:18:26.356Z,74.60
2022-12-24T10:20:59.703Z,76.50
2022-12-24T10:24:01.048Z,76.40
2022-12-24T10:27:14.993Z,77.70
2022-12-24T10:29:50.121Z,68.80
2022-12-24T10:32:25.709Z,75.40
2022-12-24T10:35:06.595Z,72.50
2022-12-24T10:37:34.927Z,74.20
2022-12-24T10:40:03.776Z,64.80
2022-12-24T10:42:50.275Z,62.30
2022-12-24T10:45:23.228Z,61.60
2022-12-24T10:47:56.263Z,72.50
2022-12-24T10:50:41.388Z,64.90
2022-12-24T10:53:42.239Z,69.40
2022-12-24T10:56:17.013Z,70.50
2022-12-24T10:58:51.389Z,74.80
2022-12-24T11:01:21.363Z,70.70
2022-12-24T11:04:02.548Z,74.50
2022-12-24T11:06:31.355Z,71.00
2022-12-24T11:09:21.769Z,68.00
2022-12-24T11:11:50.599Z,65.00
2022-12-24T11:14:21.086Z,65.60
2022-12-24T11:16:55.114Z,61.90
2022-12-24T11:19:41.635Z,56.30
2022-12-24T11:22:24.129Z,61.10
2022-12-24T11:25:02.724Z,68.40
2022-12-24T11:27:47.477Z,71.50
2022-12-24T11:30:16.809Z,69.40
2022-12-24T11:32:47.972Z,70.10
2022-12-24T11:35:17.513Z,70.20
2022-12-24T11:37:45.589Z,75.10
2022-12-24T11:40:23.255Z,74.30
2022-12-24T11:42:53.984Z,75.00
2022-12-24T11:45:26.548Z,79.90
2022-12-24T11:47:56.172Z,76.90
2022-12-24T11:50:27.417Z,74.90
2022-12-24T11:53:03.940Z,72.00
2022-12-24T11:55:53.138Z,61.30
2022-12-24T11:58:56.832Z,69.10
2022-12-24T12:01:40.745Z,59.10
2022-12-24T12:04:23.052Z,69.70
2022-12-24T12:07:00.536Z,62.60
2022-12-24T12:09:38.171Z,76.10
2022-12-24T12:12:12.988Z,73.70
2022-12-24T12:14:48.380Z,73.30
2022-12-24T12:17:35.964Z,71.40
2022-12-24T12:20:17.075Z,71.20
2022-12-24T12:22:56.244Z,70.50
2022-12-24T12:25:33.455Z,63.60
2022-12-24T12:28:07.419Z,61.50
2022-12-24T12:30:38.484Z,68.20
2022-12-24T12:33:18.775Z,70.00
2022-12-24T12:35:49.326Z,69.70
2022-12-24T12:38:27.152Z,76.40
2022-12-24T12:41:16.889Z,75.40
2022-12-24T12:44:22.789Z,81.90
2022-12-24T12:47:03.071Z,79.10
2022-12-24T12:50:00.491Z,77.70
2022-12-24T12:52:47.133Z,67.20
2022-12-24T12:55:25.181Z,79.30
2022-12-24T12:57:58.927Z,80.90
2022-12-24T13:00:29.842Z,76.00
2022-12-24T13:03:19.897Z,76.50
2022-12-24T13:06:00.291Z,79.30
2022-12-24T13:08:38.408Z,77.50
2022-12-24T13:11:29.300Z,70.40
2022-12-24T13:14:38.914Z,82.80
2022-12-24T13:17:18.859Z,84.30
2022-12-24T13:20:27.318Z,90.80
2022-12-24T13:23:12.086Z,86.80
2022-12-24T13:25:43.116Z,87.00
2022-12-24T13:28:18.660Z,94.50
2022-12-24T13:30:49.186Z,90.60
2022-12-24T13:33:35.889Z,85.30
2022-12-24T13:36:06.700Z,88.00
2022-12-24T13:38:48.937Z,90.50
2022-12-24T13:41:40.022Z,67.80
2022-12-24T13:44:15.066Z,68.80
2022-12-24T13:46:47.320Z,67.00
2022-12-24T13:49:25.941Z,61.70
2022-12-24T13:52:11.279Z,72.00
2022-12-24T13:54:43.110Z,66.40
2022-12-24T13:57:29.468Z,65.40
2022-12-24T14:00:09.049Z,63.90
2022-12-24T14:02:49.782Z,64.60
2022-12-24T14:05:29.263Z,65.00
2022-12-24T14:07:59.790Z,63.70
2022-12-24T14:10:58.863Z,63.30
2022-12-24T14:13:39.467Z,65.70
2022-12-24T14:16:20.811Z,73.00
2022-12-24T14:19:18.674Z,72.10
2022-12-24T14:21:56.416Z,76.10
2022-12-24T14:24:35.194Z,80.10
2022-12-24T14:27:39.025Z,76.20
2022-12-24T14:30:20.617Z,64.70
2022-12-24T14:32:51.008Z,69.60
2022-12-24T14:35:26.595Z,67.20
2022-12-24T14:38:05.651Z,68.10
2022-12-24T14:40:43.714Z,67.60
2022-12-24T14:43:32.449Z,70.70
2022-12-24T14:46:32.083Z,72.40
2022-12-24T14:49:27.794Z,62.30
2022-12-24T14:52:45.929Z,56.20
2022-12-24T14:55:29.675Z,62.30
2022-12-24T14:58:25.876Z,60.20
2022-12-24T15:00:57.617Z,70.00
2022-12-24T15:03:29.060Z,73.00
2022-12-24T15:06:05.171Z,72.10
2022-12-24T15:08:45.755Z,76.00
2022-12-24T15:11:23.504Z,76.60
2022-12-24T15:13:58.658Z,85.20
2022-12-24T15:19:21.507Z,76.40
2022-12-24T15:21:50.573Z,85.70
2022-12-24T15:24:34.457Z,81.80
2022-12-24T15:27:16.897Z,92.80
2022-12-24T15:29:47.160Z,92.30
2022-12-24T15:32:18.095Z,97.90
2022-12-24T15:34:49.218Z,102.00
2022-12-24T15:37:29.990Z,102.00
2022-12-24T15:40:11.577Z,100.70
2022-12-24T15:42:44.364Z,100.90
2022-12-24T15:45:27.227Z,95.30
2022-12-24T15:48:10.036Z,79.60
2022-12-24T15:50:44.792Z,96.60
2022-12-24T15:53:22.909Z,91.20
2022-12-24T15:56:02.876Z,87.20
2022-12-24T15:58:35.118Z,93.60
2022-12-24T16:01:09.866Z,89.30
2022-12-24T16:03:54.336Z,79.50
2022-12-24T16:06:23.856Z,85.80
2022-12-24T16:08:52.920Z,82.00
2022-12-24T16:11:23.803Z,84.70
2022-12-24T16:14:14.527Z,86.00
2022-12-24T16:16:48.290Z,83.90
2022-12-24T16:19:22.867Z,83.90
2022-12-24T16:21:57.420Z,91.30
2022-12-24T16:24:31.057Z,86.50
2022-12-24T16:26:58.975Z,81.30
2022-12-24T16:29:27.885Z,92.70
2022-12-24T16:31:58.255Z,103.50
2022-12-24T16:34:29.135Z,95.50
2022-12-24T16:36:58.580Z,91.40
2022-12-24T16:39:32.352Z,95.40
2022-12-24T16:42:21.942Z,90.30
2022-12-24T16:44:53.098Z,95.80
2022-12-24T16:47:35.721Z,77.90
2022-12-24T16:50:08.437Z,82.10
2022-12-24T16:52:36.488Z,82.70
2022-12-24T16:55:04.934Z,82.50
2022-12-24T16:57:34.350Z,81.10
2022-12-24T17:00:04.937Z,86.10
2022-12-24T17:02:33.328Z,83.80
2022-12-24T17:05:01.576Z,80.40
2022-12-24T17:07:29.693Z,98.80
2022-12-24T17:09:57.811Z,111.50
2022-12-24T17:12:26.028Z,113.60
2022-12-24T17:14:54.159Z,108.40
2022-12-24T17:17:28.792Z,109.90
2022-12-24T17:19:57.702Z,117.90
2022-12-24T17:22:27.912Z,112.00
2022-12-24T17:24:56.263Z,104.50
2022-12-24T17:27:24.727Z,108.80
2022-12-24T17:29:53.027Z,118.20
2022-12-24T17:32:21.056Z,112.00
2022-12-24T17:34:49.101Z,99.10
2022-12-24T17:37:17.148Z,103.70
2022-12-24T17:39:45.430Z,100.80
2022-12-24T17:42:13.520Z,95.40
2022-12-24T17:44:41.684Z,90.50
2022-12-24T17:47:10.021Z,98.50
2022-12-24T17:49:38.039Z,95.40
2022-12-24T17:52:06.428Z,99.60
2022-12-24T17:54:34.758Z,93.20
2022-12-24T17:57:03.032Z,94.90
2022-12-24T17:59:31.789Z,97.80
2022-12-24T18:02:00.474Z,95.80
2022-12-24T18:04:28.835Z,105.20
2022-12-24T18:07:02.035Z,99.90
2022-12-24T18:09:31.158Z,100.60
2022-12-24T18:11:59.340Z,115.80
2022-12-24T18:14:27.910Z,101.00
2022-12-24T18:16:56.294Z,99.40
2022-12-24T18:19:24.550Z,100.10
2022-12-24T18:21:52.662Z,95.00
2022-12-24T18:24:20.965Z,99.40
2022-12-24T18:26:49.606Z,88.90
2022-12-24T18:29:18.186Z,96.30
2022-12-24T18:31:46.613Z,81.70
2022-12-24T18:34:15.254Z,92.70
2022-12-24T18:36:43.224Z,91.00
2022-12-24T18:39:11.469Z,89.20
2022-12-24T18:41:39.633Z,89.90
2022-12-24T18:44:09.821Z,90.30
2022-12-24T18:46:37.837Z,87.60
2022-12-24T18:49:05.892Z,91.70
2022-12-24T18:51:35.588Z,78.60
2022-12-24T18:54:05.368Z,85.20
2022-12-24T18:56:33.499Z,87.80
2022-12-24T18:59:02.971Z,80.90
2022-12-24T19:01:33.622Z,95.40
2022-12-24T19:04:02.699Z,63.30
2022-12-24T19:06:30.693Z,70.40
2022-12-24T19:09:00.895Z,72.50
2022-12-24T19:11:32.273Z,64.50
2022-12-24T19:14:01.919Z,68.20
2022-12-24T19:16:33.420Z,59.80
2022-12-24T19:19:03.070Z,55.30
2022-12-24T19:21:32.030Z,61.50
2022-12-24T19:24:00.554Z,52.90
2022-12-24T19:26:28.813Z,49.20
2022-12-24T19:28:56.970Z,52.70
2022-12-24T19:31:26.285Z,49.00
2022-12-24T19:33:56.460Z,54.00
2022-12-24T19:36:27.732Z,45.90
2022-12-24T19:38:56.894Z,45.40
2022-12-24T19:41:28.008Z,38.70
2022-12-24T19:43:59.673Z,39.80
2022-12-24T19:46:32.811Z,36.20
2022-12-24T19:49:07.899Z,33.80
2022-12-24T19:51:36.749Z,25.10
2022-12-24T19:54:06.518Z,21.70
2022-12-24T19:56:35.823Z,18.20
2022-12-24T19:59:04.420Z,16.10
2022-12-24T20:01:35.298Z,15.10
2022-12-24T20:04:03.850Z,13.80
2022-12-24T20:06:35.373Z,15.50
2022-12-24T20:09:07.141Z,10.00
2022-12-24T20:11:36.264Z,11.10
2022-12-24T20:14:05.866Z,14.50
2022-12-24T20:16:34.528Z,13.30
2022-12-24T20:19:05.195Z,16.00
2022-12-24T20:21:34.480Z,10.10
2022-12-24T20:24:02.936Z,12.80
2022-12-24T20:26:31.387Z,10.90
2022-12-24T20:29:04.671Z,12.50
2022-12-24T20:31:33.880Z,9.70
2022-12-24T20:34:04.088Z,10.60
2022-12-24T20:36:32.182Z,12.20
2022-12-24T20:39:00.480Z,14.70
2022-12-24T20:41:30.211Z,10.80
2022-12-24T20:44:00.431Z,11.70
2022-12-24T20:46:31.462Z,15.30
2022-12-24T20:49:00.119Z,12.60
2022-12-24T20:51:29.200Z,17.00
2022-12-24T20:54:00.938Z,17.80
2022-12-24T20:56:31.123Z,16.60
2022-12-24T20:59:01.506Z,16.80
2022-12-24T21:01:30.609Z,17.70
2022-12-24T21:04:05.091Z,13.80
2022-12-24T21:06:34.818Z,10.80
2022-12-24T21:09:04.174Z,12.20
2022-12-24T21:11:51.762Z,14.30
2022-12-24T21:14:23.703Z,11.80
2022-12-24T21:16:53.475Z,13.80
2022-12-24T21:19:25.018Z,17.50
2022-12-24T21:21:55.199Z,16.40
2022-12-24T21:24:24.935Z,14.50
2022-12-24T21:26:53.548Z,13.10
2022-12-24T21:29:21.756Z,13.10
2022-12-24T21:31:50.098Z,12.40
2022-12-24T21:34:18.281Z,11.80
2022-12-24T21:36:46.889Z,13.20
2022-12-24T21:39:15.342Z,11.40
2022-12-24T21:41:43.600Z,13.40
2022-12-24T21:44:11.657Z,12.10
2022-12-24T21:46:39.826Z,10.80
2022-12-24T21:49:28.954Z,11.80
2022-12-24T21:51:59.003Z,11.50
2022-12-24T21:54:28.665Z,13.00
2022-12-24T21:57:18.513Z,11.20
2022-12-24T21:59:49.165Z,14.30
2022-12-24T22:02:19.014Z,14.30
2022-12-24T22:04:47.256Z,15.40
2022-12-24T22:07:45.174Z,13.10
2022-12-24T22:10:32.992Z,13.80
2022-12-24T22:13:06.322Z,13.10
2022-12-24T22:15:35.965Z,13.10
2022-12-24T22:18:04.155Z,11.60
2022-12-24T22:20:32.158Z,14.70
2022-12-24T22:23:00.238Z,12.40
2022-12-24T22:25:32.058Z,12.40
2022-12-24T22:28:00.210Z,11.40
2022-12-24T22:30:28.699Z,13.20
2022-12-24T22:32:57.820Z,15.40
2022-12-24T22:35:26.529Z,10.90
2022-12-24T22:37:59.665Z,10.50
2022-12-24T22:40:28.870Z,11.50
2022-12-24T22:42:56.896Z,17.90
2022-12-24T22:45:24.960Z,15.30
2022-12-24T22:47:53.422Z,16.60
2022-12-24T22:50:22.574Z,13.10
2022-12-24T22:52:50.518Z,15.20
2022-12-24T22:55:18.618Z,15.60
2022-12-24T22:57:46.735Z,13.10
2022-12-24T23:00:39.532Z,11.00
2022-12-24T23:03:08.598Z,11.90
2022-12-24T23:05:37.655Z,9.90
2022-12-24T23:08:07.075Z,13.60
2022-12-24T23:10:36.378Z,12.60
2022-12-24T23:13:22.999Z,12.10
2022-12-24T23:15:51.528Z,13.90
2022-12-24T23:18:19.752Z,13.80
2022-12-24T23:20:48.345Z,15.30
2022-12-24T23:23:16.476Z,14.30
2022-12-24T23:25:44.671Z,12.50
2022-12-24T23:28:13.073Z,10.80
2022-12-24T23:30:41.488Z,13.70
2022-12-24T23:33:09.843Z,13.00
2022-12-24T23:35:38.103Z,15.90
2022-12-24T23:38:06.279Z,13.70
2022-12-24T23:40:34.522Z,15.40
2022-12-24T23:43:02.613Z,12.90
2022-12-24T23:45:30.724Z,13.40
2022-12-24T23:47:58.902Z,18.10
2022-12-24T23:50:27.595Z,14.60
2022-12-24T23:52:55.591Z,18.60
2022-12-24T23:55:23.800Z,12.00
2022-12-24T23:57:52.316Z,13.70
